Hyakuri current weather conditions

sailwx.info

Wind from 040 at 7 knots

Air temperature 6.0° C
Visibility: greater than 5.4 NM
Dewpoint 1.0° C
Present weather: Light rain.

Last reported at 2015-Mar-06 14:20 UTC.
Time now 2015-Mar-06 16:04 UTC

Location: N 36°11' E 140°25'.
View on Google Maps.

See reports from other nearby stations

  
Tides and Currents Weather Stations Pressure Air Temp Water Temp Dewpoint Dewpoint Depression Visibility Wind Speed Wind Dir Waves Ship Positions
date/time (UTC)wind fromknots sea level pressurealtimeterstation pressurevisibilityair tempwater tempwave heightnotes
2015-Mar-06 14:20 040 7 5.4 6.0 Light rain.
2015-Mar-06 14:00 050 6 5.4 6.0
2015-Mar-06 13:00 060 7 5.4 6.0
2015-Mar-06 12:00 050 9 5.4 5.0
2015-Mar-06 11:00 050 7 5.4 5.0
2015-Mar-06 10:52 050 7 5.4 5.0
2015-Mar-06 10:00 060 8 5.4 6.0
2015-Mar-06 09:35 060 10 5.4 6.0
2015-Mar-06 09:00 060 9 5.4 6.0
2015-Mar-06 08:00 080 11 5.4 6.0
2015-Mar-06 07:00 090 11 5.4 7.0
2015-Mar-06 06:00 070 14 5.4 7.0
2015-Mar-06 05:27 070 12 5.4 8.0
2015-Mar-06 05:00 070 13 5.4 8.0
2015-Mar-06 04:00 050 11 5.4 8.0
2015-Mar-06 03:00 060 11 5.4 9.0
2015-Mar-06 02:00 070 11 5.4 8.0
2015-Mar-06 01:00 050 10 5.4 8.0
2015-Mar-06 00:00 040 10 5.4 7.0
2015-Mar-05 23:00 030 8 5.4 6.0
2015-Mar-05 22:00 010 3 5.4 3.0
2015-Mar-05 21:00 5.4 3.0
2015-Mar-05 20:00 010 2 5.4 3.0
2015-Mar-05 19:00 360 4 5.4 3.0
2015-Mar-05 18:00 350 3 5.4 3.0
2015-Mar-05 17:00 350 3 5.4 4.0
2015-Mar-05 16:00 010 5 5.4 4.0
2015-Mar-05 15:00 350 8 5.4 5.0
2015-Mar-05 14:00 030 6 5.4 5.0
2015-Mar-05 13:00 350 7 5.4 6.0
2015-Mar-05 12:00 010 10 5.4 7.0
2015-Mar-05 11:00 360 7 5.4 7.0
2015-Mar-05 10:00 5.4 6.0
2015-Mar-05 09:00 5.4 8.0
2015-Mar-05 08:20 130 3 5.4 8.0
2015-Mar-05 08:00 100 5 5.4 9.0
2015-Mar-05 07:00 090 5 5.410.0
2015-Mar-05 06:21 090 10 5.410.0
2015-Mar-05 06:00 030 10 5.412.0
2015-Mar-05 05:00 050 10 5.413.0
2015-Mar-05 04:11 5.413.0
2015-Mar-05 04:00 290 6 gusting 17 5.414.0
2015-Mar-05 03:00 5.413.0
2015-Mar-05 02:00 340 4 5.411.0
2015-Mar-05 01:00 5.4 9.0
2015-Mar-05 00:00 340 6 5.4 9.0
2015-Mar-04 23:00 320 3 5.4 6.0
2015-Mar-04 22:00 5.4 1.0
2015-Mar-04 21:00 350 3 5.4 1.0
2015-Mar-04 20:00 360 6 5.4 2.0
2015-Mar-04 19:00 350 6 5.4 4.0
2015-Mar-04 18:00 360 7 5.4 5.0
2015-Mar-04 17:00 010 7 5.4 5.0
2015-Mar-04 16:00 010 5 5.4 5.0